sensor_id;sensor_type;location;lat;lon;timestamp;P1;durP1;ratioP1;P2;durP2;ratioP2
6878;SDS011;3478;51.462;7.338;2023-08-20T00:01:41;10.23;;;9.23;;
6878;SDS011;3478;51.462;7.338;2023-08-20T00:06:44;10.00;;;9.13;;
6878;SDS011;3478;51.462;7.338;2023-08-20T00:11:48;9.80;;;8.90;;
6878;SDS011;3478;51.462;7.338;2023-08-20T00:16:50;11.03;;;9.90;;
6878;SDS011;3478;51.462;7.338;2023-08-20T00:21:53;10.80;;;9.70;;
6878;SDS011;3478;51.462;7.338;2023-08-20T00:26:56;9.50;;;8.20;;
6878;SDS011;3478;51.462;7.338;2023-08-20T00:31:58;10.13;;;8.97;;
6878;SDS011;3478;51.462;7.338;2023-08-20T00:37:00;12.83;;;9.13;;
6878;SDS011;3478;51.462;7.338;2023-08-20T00:42:05;8.77;;;7.87;;
6878;SDS011;3478;51.462;7.338;2023-08-20T00:47:07;9.10;;;8.40;;
6878;SDS011;3478;51.462;7.338;2023-08-20T00:52:10;11.00;;;9.43;;
6878;SDS011;3478;51.462;7.338;2023-08-20T00:57:15;12.27;;;9.60;;
6878;SDS011;3478;51.462;7.338;2023-08-20T01:02:19;10.00;;;9.20;;
6878;SDS011;3478;51.462;7.338;2023-08-20T01:07:24;11.73;;;10.53;;
6878;SDS011;3478;51.462;7.338;2023-08-20T01:12:33;16.87;;;14.13;;
6878;SDS011;3478;51.462;7.338;2023-08-20T01:17:36;17.97;;;13.77;;
6878;SDS011;3478;51.462;7.338;2023-08-20T01:28:26;16.10;;;13.73;;
6878;SDS011;3478;51.462;7.338;2023-08-20T01:33:29;17.23;;;13.73;;
6878;SDS011;3478;51.462;7.338;2023-08-20T01:38:32;18.10;;;14.30;;
6878;SDS011;3478;51.462;7.338;2023-08-20T01:43:36;16.73;;;14.93;;
6878;SDS011;3478;51.462;7.338;2023-08-20T01:48:38;17.47;;;13.43;;
6878;SDS011;3478;51.462;7.338;2023-08-20T01:53:40;16.53;;;12.33;;
6878;SDS011;3478;51.462;7.338;2023-08-20T01:58:43;15.87;;;14.20;;
6878;SDS011;3478;51.462;7.338;2023-08-20T02:03:45;14.67;;;13.17;;
6878;SDS011;3478;51.462;7.338;2023-08-20T02:08:47;18.73;;;15.67;;
6878;SDS011;3478;51.462;7.338;2023-08-20T02:13:51;16.40;;;14.57;;
6878;SDS011;3478;51.462;7.338;2023-08-20T02:18:53;17.47;;;15.50;;
6878;SDS011;3478;51.462;7.338;2023-08-20T02:23:55;23.43;;;13.63;;
6878;SDS011;3478;51.462;7.338;2023-08-20T02:28:58;16.57;;;14.50;;
6878;SDS011;3478;51.462;7.338;2023-08-20T02:34:00;16.77;;;14.17;;
6878;SDS011;3478;51.462;7.338;2023-08-20T02:39:02;15.87;;;14.10;;
6878;SDS011;3478;51.462;7.338;2023-08-20T02:44:09;17.20;;;14.30;;
6878;SDS011;3478;51.462;7.338;2023-08-20T02:49:11;19.70;;;14.77;;
6878;SDS011;3478;51.462;7.338;2023-08-20T02:54:14;22.10;;;16.13;;
6878;SDS011;3478;51.462;7.338;2023-08-20T02:59:18;20.20;;;14.60;;
6878;SDS011;3478;51.462;7.338;2023-08-20T03:04:20;15.10;;;12.87;;
6878;SDS011;3478;51.462;7.338;2023-08-20T03:09:22;20.90;;;13.93;;
6878;SDS011;3478;51.462;7.338;2023-08-20T03:14:25;16.67;;;14.10;;
6878;SDS011;3478;51.462;7.338;2023-08-20T03:19:29;19.87;;;14.60;;
6878;SDS011;3478;51.462;7.338;2023-08-20T03:24:35;18.00;;;14.17;;
6878;SDS011;3478;51.462;7.338;2023-08-20T03:29:38;18.20;;;14.83;;
6878;SDS011;3478;51.462;7.338;2023-08-20T03:34:40;17.67;;;14.63;;
6878;SDS011;3478;51.462;7.338;2023-08-20T03:39:42;17.93;;;14.43;;
6878;SDS011;3478;51.462;7.338;2023-08-20T03:44:45;20.60;;;15.87;;
6878;SDS011;3478;51.462;7.338;2023-08-20T03:49:47;20.97;;;16.80;;
6878;SDS011;3478;51.462;7.338;2023-08-20T03:54:49;18.57;;;16.53;;
6878;SDS011;3478;51.462;7.338;2023-08-20T03:59:52;22.53;;;18.43;;
6878;SDS011;3478;51.462;7.338;2023-08-20T04:04:57;22.07;;;15.83;;
6878;SDS011;3478;51.462;7.338;2023-08-20T04:09:59;24.33;;;16.33;;
6878;SDS011;3478;51.462;7.338;2023-08-20T04:15:02;23.10;;;18.07;;
6878;SDS011;3478;51.462;7.338;2023-08-20T04:20:05;26.63;;;20.13;;
6878;SDS011;3478;51.462;7.338;2023-08-20T04:25:09;27.80;;;19.80;;
6878;SDS011;3478;51.462;7.338;2023-08-20T04:30:14;28.63;;;20.30;;
6878;SDS011;3478;51.462;7.338;2023-08-20T04:35:16;31.97;;;21.63;;
6878;SDS011;3478;51.462;7.338;2023-08-20T04:40:18;34.57;;;20.20;;
6878;SDS011;3478;51.462;7.338;2023-08-20T04:45:21;30.93;;;20.67;;
6878;SDS011;3478;51.462;7.338;2023-08-20T04:50:23;29.97;;;19.60;;
6878;SDS011;3478;51.462;7.338;2023-08-20T04:55:25;25.33;;;19.60;;
6878;SDS011;3478;51.462;7.338;2023-08-20T05:00:29;34.50;;;23.70;;
6878;SDS011;3478;51.462;7.338;2023-08-20T05:05:31;28.27;;;21.60;;
6878;SDS011;3478;51.462;7.338;2023-08-20T05:10:35;36.73;;;22.57;;
6878;SDS011;3478;51.462;7.338;2023-08-20T05:15:38;30.97;;;21.83;;
6878;SDS011;3478;51.462;7.338;2023-08-20T05:20:40;34.80;;;21.83;;
6878;SDS011;3478;51.462;7.338;2023-08-20T05:25:42;40.73;;;23.17;;
6878;SDS011;3478;51.462;7.338;2023-08-20T05:30:53;36.63;;;23.50;;
6878;SDS011;3478;51.462;7.338;2023-08-20T05:35:56;35.90;;;23.10;;
6878;SDS011;3478;51.462;7.338;2023-08-20T05:40:59;48.90;;;22.60;;
6878;SDS011;3478;51.462;7.338;2023-08-20T05:46:02;48.70;;;25.03;;
6878;SDS011;3478;51.462;7.338;2023-08-20T05:51:04;38.37;;;24.23;;
6878;SDS011;3478;51.462;7.338;2023-08-20T05:56:06;45.37;;;26.37;;
6878;SDS011;3478;51.462;7.338;2023-08-20T06:01:10;35.53;;;24.73;;
6878;SDS011;3478;51.462;7.338;2023-08-20T06:06:12;30.23;;;22.90;;
6878;SDS011;3478;51.462;7.338;2023-08-20T06:11:14;31.10;;;20.57;;
6878;SDS011;3478;51.462;7.338;2023-08-20T06:16:17;27.10;;;19.60;;
6878;SDS011;3478;51.462;7.338;2023-08-20T06:21:19;32.37;;;19.63;;
6878;SDS011;3478;51.462;7.338;2023-08-20T06:26:21;32.47;;;21.60;;
6878;SDS011;3478;51.462;7.338;2023-08-20T06:31:25;32.73;;;21.20;;
6878;SDS011;3478;51.462;7.338;2023-08-20T06:36:27;31.37;;;22.37;;
6878;SDS011;3478;51.462;7.338;2023-08-20T06:41:29;30.67;;;22.03;;
6878;SDS011;3478;51.462;7.338;2023-08-20T06:46:32;34.67;;;23.70;;
6878;SDS011;3478;51.462;7.338;2023-08-20T06:51:34;35.73;;;23.30;;
6878;SDS011;3478;51.462;7.338;2023-08-20T06:56:36;33.93;;;23.17;;
6878;SDS011;3478;51.462;7.338;2023-08-20T07:01:40;36.27;;;22.90;;
6878;SDS011;3478;51.462;7.338;2023-08-20T07:06:42;35.47;;;24.57;;
6878;SDS011;3478;51.462;7.338;2023-08-20T07:11:44;30.73;;;22.57;;
6878;SDS011;3478;51.462;7.338;2023-08-20T07:16:47;28.37;;;20.80;;
6878;SDS011;3478;51.462;7.338;2023-08-20T07:21:54;29.97;;;22.33;;
6878;SDS011;3478;51.462;7.338;2023-08-20T07:26:56;30.87;;;20.87;;
6878;SDS011;3478;51.462;7.338;2023-08-20T07:32:02;30.33;;;19.50;;
6878;SDS011;3478;51.462;7.338;2023-08-20T07:37:05;29.37;;;20.27;;
6878;SDS011;3478;51.462;7.338;2023-08-20T07:42:07;28.20;;;21.83;;
6878;SDS011;3478;51.462;7.338;2023-08-20T07:47:10;23.50;;;19.60;;
6878;SDS011;3478;51.462;7.338;2023-08-20T07:52:12;27.23;;;20.53;;
6878;SDS011;3478;51.462;7.338;2023-08-20T07:57:14;25.20;;;18.93;;
6878;SDS011;3478;51.462;7.338;2023-08-20T08:02:18;22.53;;;17.10;;
6878;SDS011;3478;51.462;7.338;2023-08-20T08:07:20;24.53;;;17.40;;
6878;SDS011;3478;51.462;7.338;2023-08-20T08:12:22;24.30;;;17.23;;
6878;SDS011;3478;51.462;7.338;2023-08-20T08:17:25;19.50;;;16.20;;
6878;SDS011;3478;51.462;7.338;2023-08-20T08:22:27;16.63;;;13.27;;
6878;SDS011;3478;51.462;7.338;2023-08-20T08:27:29;17.17;;;15.13;;
6878;SDS011;3478;51.462;7.338;2023-08-20T08:32:32;20.57;;;15.87;;
6878;SDS011;3478;51.462;7.338;2023-08-20T08:37:34;18.47;;;16.50;;
6878;SDS011;3478;51.462;7.338;2023-08-20T08:42:36;22.77;;;14.33;;
6878;SDS011;3478;51.462;7.338;2023-08-20T08:47:40;15.47;;;13.27;;
6878;SDS011;3478;51.462;7.338;2023-08-20T08:52:42;14.60;;;13.10;;
6878;SDS011;3478;51.462;7.338;2023-08-20T08:57:46;11.43;;;10.23;;
6878;SDS011;3478;51.462;7.338;2023-08-20T09:02:49;13.60;;;10.00;;
6878;SDS011;3478;51.462;7.338;2023-08-20T09:07:54;9.10;;;8.50;;
6878;SDS011;3478;51.462;7.338;2023-08-20T09:12:57;8.20;;;7.50;;
6878;SDS011;3478;51.462;7.338;2023-08-20T09:18:02;6.47;;;6.00;;
6878;SDS011;3478;51.462;7.338;2023-08-20T09:23:04;7.80;;;6.70;;
6878;SDS011;3478;51.462;7.338;2023-08-20T09:28:13;6.33;;;5.73;;
6878;SDS011;3478;51.462;7.338;2023-08-20T09:33:16;7.30;;;6.70;;
6878;SDS011;3478;51.462;7.338;2023-08-20T09:38:18;7.50;;;6.83;;
6878;SDS011;3478;51.462;7.338;2023-08-20T09:43:21;6.03;;;5.50;;
6878;SDS011;3478;51.462;7.338;2023-08-20T09:48:28;7.00;;;6.40;;
6878;SDS011;3478;51.462;7.338;2023-08-20T09:53:36;7.43;;;6.93;;
6878;SDS011;3478;51.462;7.338;2023-08-20T09:58:44;5.90;;;5.30;;
6878;SDS011;3478;51.462;7.338;2023-08-20T10:03:49;5.43;;;5.13;;
6878;SDS011;3478;51.462;7.338;2023-08-20T10:08:51;4.33;;;3.97;;
6878;SDS011;3478;51.462;7.338;2023-08-20T10:13:54;5.23;;;4.90;;
6878;SDS011;3478;51.462;7.338;2023-08-20T10:18:58;4.97;;;4.60;;
6878;SDS011;3478;51.462;7.338;2023-08-20T10:24:04;4.97;;;4.67;;
6878;SDS011;3478;51.462;7.338;2023-08-20T10:34:39;4.57;;;4.30;;
6878;SDS011;3478;51.462;7.338;2023-08-20T10:39:43;4.83;;;4.63;;
6878;SDS011;3478;51.462;7.338;2023-08-20T10:45:01;4.20;;;3.90;;
6878;SDS011;3478;51.462;7.338;2023-08-20T10:50:11;7.03;;;5.43;;
6878;SDS011;3478;51.462;7.338;2023-08-20T10:55:17;5.10;;;4.70;;
6878;SDS011;3478;51.462;7.338;2023-08-20T11:00:23;4.87;;;4.57;;
6878;SDS011;3478;51.462;7.338;2023-08-20T11:05:29;5.00;;;4.53;;
6878;SDS011;3478;51.462;7.338;2023-08-20T11:10:31;5.10;;;4.80;;
6878;SDS011;3478;51.462;7.338;2023-08-20T11:15:34;6.93;;;6.43;;
6878;SDS011;3478;51.462;7.338;2023-08-20T11:20:40;6.00;;;5.50;;
6878;SDS011;3478;51.462;7.338;2023-08-20T11:25:42;5.70;;;5.10;;
6878;SDS011;3478;51.462;7.338;2023-08-20T11:30:45;5.77;;;5.37;;
6878;SDS011;3478;51.462;7.338;2023-08-20T11:35:49;5.60;;;5.10;;
6878;SDS011;3478;51.462;7.338;2023-08-20T11:40:52;5.83;;;5.43;;
6878;SDS011;3478;51.462;7.338;2023-08-20T11:45:54;7.67;;;7.17;;
6878;SDS011;3478;51.462;7.338;2023-08-20T11:50:58;6.77;;;6.40;;
6878;SDS011;3478;51.462;7.338;2023-08-20T11:56:00;7.93;;;7.33;;
6878;SDS011;3478;51.462;7.338;2023-08-20T12:01:06;7.43;;;7.03;;
6878;SDS011;3478;51.462;7.338;2023-08-20T12:06:20;14.03;;;10.17;;
6878;SDS011;3478;51.462;7.338;2023-08-20T12:11:24;16.03;;;14.43;;
6878;SDS011;3478;51.462;7.338;2023-08-20T12:16:27;12.67;;;11.47;;
6878;SDS011;3478;51.462;7.338;2023-08-20T12:21:30;18.87;;;17.27;;
6878;SDS011;3478;51.462;7.338;2023-08-20T12:26:32;20.50;;;18.60;;
6878;SDS011;3478;51.462;7.338;2023-08-20T12:31:34;20.47;;;18.57;;
6878;SDS011;3478;51.462;7.338;2023-08-20T12:36:38;18.40;;;16.80;;
6878;SDS011;3478;51.462;7.338;2023-08-20T12:41:40;16.80;;;15.37;;
6878;SDS011;3478;51.462;7.338;2023-08-20T12:46:43;19.00;;;17.30;;
6878;SDS011;3478;51.462;7.338;2023-08-20T12:51:46;14.80;;;13.50;;
6878;SDS011;3478;51.462;7.338;2023-08-20T12:56:48;14.03;;;12.97;;
6878;SDS011;3478;51.462;7.338;2023-08-20T13:01:50;13.80;;;12.70;;
6878;SDS011;3478;51.462;7.338;2023-08-20T13:06:53;13.50;;;12.60;;
6878;SDS011;3478;51.462;7.338;2023-08-20T13:11:56;13.80;;;12.57;;
6878;SDS011;3478;51.462;7.338;2023-08-20T13:17:01;12.83;;;11.90;;
6878;SDS011;3478;51.462;7.338;2023-08-20T13:22:05;13.13;;;12.13;;
6878;SDS011;3478;51.462;7.338;2023-08-20T13:27:07;13.63;;;12.53;;
6878;SDS011;3478;51.462;7.338;2023-08-20T13:32:09;11.60;;;10.80;;
6878;SDS011;3478;51.462;7.338;2023-08-20T13:37:12;12.27;;;11.30;;
6878;SDS011;3478;51.462;7.338;2023-08-20T13:42:14;10.60;;;9.80;;
6878;SDS011;3478;51.462;7.338;2023-08-20T13:47:16;11.13;;;10.43;;
6878;SDS011;3478;51.462;7.338;2023-08-20T13:52:19;12.23;;;11.20;;
6878;SDS011;3478;51.462;7.338;2023-08-20T13:57:21;11.70;;;10.90;;
6878;SDS011;3478;51.462;7.338;2023-08-20T14:02:23;10.57;;;9.83;;
6878;SDS011;3478;51.462;7.338;2023-08-20T14:07:27;10.30;;;9.67;;
6878;SDS011;3478;51.462;7.338;2023-08-20T14:12:28;10.23;;;9.60;;
6878;SDS011;3478;51.462;7.338;2023-08-20T14:17:31;11.50;;;10.53;;
6878;SDS011;3478;51.462;7.338;2023-08-20T14:22:35;10.20;;;9.47;;
6878;SDS011;3478;51.462;7.338;2023-08-20T14:27:37;10.10;;;9.30;;
6878;SDS011;3478;51.462;7.338;2023-08-20T14:32:39;12.97;;;10.17;;
6878;SDS011;3478;51.462;7.338;2023-08-20T14:37:43;11.00;;;10.20;;
6878;SDS011;3478;51.462;7.338;2023-08-20T14:42:45;11.67;;;10.60;;
6878;SDS011;3478;51.462;7.338;2023-08-20T14:47:47;9.83;;;9.23;;
6878;SDS011;3478;51.462;7.338;2023-08-20T14:52:50;10.00;;;9.23;;
6878;SDS011;3478;51.462;7.338;2023-08-20T14:57:52;7.17;;;6.63;;
6878;SDS011;3478;51.462;7.338;2023-08-20T15:02:54;6.33;;;5.83;;
6878;SDS011;3478;51.462;7.338;2023-08-20T15:07:58;7.00;;;6.47;;
6878;SDS011;3478;51.462;7.338;2023-08-20T15:13:00;6.20;;;5.80;;
6878;SDS011;3478;51.462;7.338;2023-08-20T15:18:03;8.47;;;5.27;;
6878;SDS011;3478;51.462;7.338;2023-08-20T15:23:07;6.10;;;5.60;;
6878;SDS011;3478;51.462;7.338;2023-08-20T15:28:09;5.43;;;5.13;;
6878;SDS011;3478;51.462;7.338;2023-08-20T15:33:11;5.67;;;5.23;;
6878;SDS011;3478;51.462;7.338;2023-08-20T15:38:15;4.83;;;4.50;;
6878;SDS011;3478;51.462;7.338;2023-08-20T15:43:17;5.30;;;4.40;;
6878;SDS011;3478;51.462;7.338;2023-08-20T15:48:19;3.50;;;3.20;;
6878;SDS011;3478;51.462;7.338;2023-08-20T15:53:22;3.83;;;3.60;;
6878;SDS011;3478;51.462;7.338;2023-08-20T15:58:24;3.67;;;3.33;;
6878;SDS011;3478;51.462;7.338;2023-08-20T16:03:26;4.03;;;2.93;;
6878;SDS011;3478;51.462;7.338;2023-08-20T16:08:30;3.93;;;3.43;;
6878;SDS011;3478;51.462;7.338;2023-08-20T16:13:32;2.80;;;2.57;;
6878;SDS011;3478;51.462;7.338;2023-08-20T16:18:34;3.37;;;3.27;;
6878;SDS011;3478;51.462;7.338;2023-08-20T16:23:38;3.57;;;3.30;;
6878;SDS011;3478;51.462;7.338;2023-08-20T16:28:42;3.37;;;3.17;;
6878;SDS011;3478;51.462;7.338;2023-08-20T16:33:44;4.20;;;3.80;;
6878;SDS011;3478;51.462;7.338;2023-08-20T16:38:47;4.23;;;3.70;;
6878;SDS011;3478;51.462;7.338;2023-08-20T16:43:49;3.00;;;2.80;;
6878;SDS011;3478;51.462;7.338;2023-08-20T16:48:51;3.50;;;2.60;;
6878;SDS011;3478;51.462;7.338;2023-08-20T16:53:55;3.27;;;2.87;;
6878;SDS011;3478;51.462;7.338;2023-08-20T16:58:58;3.27;;;2.67;;
6878;SDS011;3478;51.462;7.338;2023-08-20T17:04:01;5.77;;;2.93;;
6878;SDS011;3478;51.462;7.338;2023-08-20T17:09:04;2.97;;;2.77;;
6878;SDS011;3478;51.462;7.338;2023-08-20T17:14:06;4.10;;;1.93;;
6878;SDS011;3478;51.462;7.338;2023-08-20T17:19:08;1.90;;;1.80;;
6878;SDS011;3478;51.462;7.338;2023-08-20T17:24:12;3.90;;;1.50;;
6878;SDS011;3478;51.462;7.338;2023-08-20T17:29:14;2.10;;;1.40;;
6878;SDS011;3478;51.462;7.338;2023-08-20T17:34:16;4.80;;;1.53;;
6878;SDS011;3478;51.462;7.338;2023-08-20T17:39:20;1.87;;;1.30;;
6878;SDS011;3478;51.462;7.338;2023-08-20T17:44:23;1.10;;;1.00;;
6878;SDS011;3478;51.462;7.338;2023-08-20T17:49:25;1.90;;;0.60;;
6878;SDS011;3478;51.462;7.338;2023-08-20T17:54:28;2.83;;;0.80;;
6878;SDS011;3478;51.462;7.338;2023-08-20T17:59:30;1.17;;;0.80;;
6878;SDS011;3478;51.462;7.338;2023-08-20T18:04:33;1.80;;;0.50;;
6878;SDS011;3478;51.462;7.338;2023-08-20T18:09:37;1.23;;;0.57;;
6878;SDS011;3478;51.462;7.338;2023-08-20T18:14:39;1.53;;;0.67;;
6878;SDS011;3478;51.462;7.338;2023-08-20T18:19:41;2.93;;;0.80;;
6878;SDS011;3478;51.462;7.338;2023-08-20T18:24:45;3.10;;;0.90;;
6878;SDS011;3478;51.462;7.338;2023-08-20T18:29:49;2.83;;;0.70;;
6878;SDS011;3478;51.462;7.338;2023-08-20T18:34:51;2.80;;;1.33;;
6878;SDS011;3478;51.462;7.338;2023-08-20T18:39:54;2.00;;;0.70;;
6878;SDS011;3478;51.462;7.338;2023-08-20T18:44:56;2.77;;;0.97;;
6878;SDS011;3478;51.462;7.338;2023-08-20T18:49:59;1.53;;;1.20;;
6878;SDS011;3478;51.462;7.338;2023-08-20T18:55:02;1.10;;;0.90;;
6878;SDS011;3478;51.462;7.338;2023-08-20T19:00:06;3.00;;;0.60;;
6878;SDS011;3478;51.462;7.338;2023-08-20T19:05:12;1.17;;;0.67;;
6878;SDS011;3478;51.462;7.338;2023-08-20T19:10:15;5.17;;;0.90;;
6878;SDS011;3478;51.462;7.338;2023-08-20T19:15:17;1.87;;;1.00;;
6878;SDS011;3478;51.462;7.338;2023-08-20T19:20:19;2.03;;;0.87;;
6878;SDS011;3478;51.462;7.338;2023-08-20T19:25:22;2.33;;;1.10;;
6878;SDS011;3478;51.462;7.338;2023-08-20T19:30:25;0.90;;;0.57;;
6878;SDS011;3478;51.462;7.338;2023-08-20T19:35:30;3.90;;;0.87;;
6878;SDS011;3478;51.462;7.338;2023-08-20T19:40:34;5.37;;;0.80;;
6878;SDS011;3478;51.462;7.338;2023-08-20T19:45:52;2.70;;;0.80;;
6878;SDS011;3478;51.462;7.338;2023-08-20T19:50:54;0.87;;;0.40;;
6878;SDS011;3478;51.462;7.338;2023-08-20T19:55:57;2.00;;;0.93;;
6878;SDS011;3478;51.462;7.338;2023-08-20T20:01:03;6.63;;;0.90;;
6878;SDS011;3478;51.462;7.338;2023-08-20T20:06:05;2.77;;;0.97;;
6878;SDS011;3478;51.462;7.338;2023-08-20T20:11:09;2.63;;;0.50;;
6878;SDS011;3478;51.462;7.338;2023-08-20T20:16:11;2.60;;;2.40;;
6878;SDS011;3478;51.462;7.338;2023-08-20T20:21:12;1.83;;;1.23;;
6878;SDS011;3478;51.462;7.338;2023-08-20T20:26:16;1.33;;;0.80;;
6878;SDS011;3478;51.462;7.338;2023-08-20T20:31:19;1.00;;;0.70;;
6878;SDS011;3478;51.462;7.338;2023-08-20T20:36:21;2.90;;;1.00;;
6878;SDS011;3478;51.462;7.338;2023-08-20T20:41:24;3.83;;;0.93;;
6878;SDS011;3478;51.462;7.338;2023-08-20T20:46:26;1.80;;;1.23;;
6878;SDS011;3478;51.462;7.338;2023-08-20T20:51:28;4.57;;;1.13;;
6878;SDS011;3478;51.462;7.338;2023-08-20T20:56:39;3.27;;;1.03;;
6878;SDS011;3478;51.462;7.338;2023-08-20T21:01:41;3.20;;;0.80;;
6878;SDS011;3478;51.462;7.338;2023-08-20T21:06:43;1.83;;;1.00;;
6878;SDS011;3478;51.462;7.338;2023-08-20T21:11:49;1.80;;;0.80;;
6878;SDS011;3478;51.462;7.338;2023-08-20T21:16:51;1.77;;;0.60;;
6878;SDS011;3478;51.462;7.338;2023-08-20T21:21:54;0.90;;;0.80;;
6878;SDS011;3478;51.462;7.338;2023-08-20T21:26:58;2.50;;;1.30;;
6878;SDS011;3478;51.462;7.338;2023-08-20T21:32:00;2.33;;;1.00;;
6878;SDS011;3478;51.462;7.338;2023-08-20T21:37:03;2.03;;;1.00;;
6878;SDS011;3478;51.462;7.338;2023-08-20T21:42:10;4.23;;;0.80;;
6878;SDS011;3478;51.462;7.338;2023-08-20T21:47:21;1.87;;;0.90;;
6878;SDS011;3478;51.462;7.338;2023-08-20T21:52:25;3.20;;;0.83;;
6878;SDS011;3478;51.462;7.338;2023-08-20T21:57:28;7.17;;;0.97;;
6878;SDS011;3478;51.462;7.338;2023-08-20T22:02:30;2.13;;;0.90;;
6878;SDS011;3478;51.462;7.338;2023-08-20T22:07:32;3.90;;;0.90;;
6878;SDS011;3478;51.462;7.338;2023-08-20T22:12:35;1.90;;;0.90;;
6878;SDS011;3478;51.462;7.338;2023-08-20T22:17:38;2.23;;;1.37;;
6878;SDS011;3478;51.462;7.338;2023-08-20T22:22:40;1.40;;;1.30;;
6878;SDS011;3478;51.462;7.338;2023-08-20T22:27:44;1.80;;;1.13;;
6878;SDS011;3478;51.462;7.338;2023-08-20T22:32:45;1.40;;;0.70;;
6878;SDS011;3478;51.462;7.338;2023-08-20T22:38:00;1.23;;;1.13;;
6878;SDS011;3478;51.462;7.338;2023-08-20T22:43:06;3.30;;;1.17;;
6878;SDS011;3478;51.462;7.338;2023-08-20T22:48:08;2.80;;;0.87;;
6878;SDS011;3478;51.462;7.338;2023-08-20T22:53:10;2.07;;;1.17;;
6878;SDS011;3478;51.462;7.338;2023-08-20T22:58:13;9.30;;;2.33;;
6878;SDS011;3478;51.462;7.338;2023-08-20T23:03:15;1.77;;;1.00;;
6878;SDS011;3478;51.462;7.338;2023-08-20T23:08:17;2.00;;;1.10;;
6878;SDS011;3478;51.462;7.338;2023-08-20T23:13:21;2.30;;;1.53;;
6878;SDS011;3478;51.462;7.338;2023-08-20T23:18:23;2.53;;;1.50;;
6878;SDS011;3478;51.462;7.338;2023-08-20T23:23:26;5.93;;;1.73;;
6878;SDS011;3478;51.462;7.338;2023-08-20T23:28:29;5.80;;;2.07;;
6878;SDS011;3478;51.462;7.338;2023-08-20T23:33:31;6.60;;;1.70;;
6878;SDS011;3478;51.462;7.338;2023-08-20T23:38:33;6.63;;;1.90;;
6878;SDS011;3478;51.462;7.338;2023-08-20T23:43:41;3.20;;;1.67;;
6878;SDS011;3478;51.462;7.338;2023-08-20T23:48:43;3.47;;;1.33;;
6878;SDS011;3478;51.462;7.338;2023-08-20T23:53:45;2.03;;;1.23;;
6878;SDS011;3478;51.462;7.338;2023-08-20T23:58:48;4.70;;;2.17;;
